Time;durP1;ratioP1;P1;durP2;ratioP2;P2;SDS_P1;SDS_P2;PMS_P1;PMS_P2;Temp;Humidity;BMP_temperature;BMP_pressure;BME280_temperature;BME280_humidity;BME280_pressure;Samples;Min_cycle;Max_cycle;Signal;HPM_P1;HPM_P2
2021/03/16 00:01:19;;;;;;;9.50;5.93;;;;;;;3.89;55.44;99225.16;5096665;28;20036;-71
2021/03/16 00:03:45;;;;;;;11.60;5.85;;;;;;;3.94;55.56;99222.28;5096224;28;20462;-71
2021/03/16 00:06:10;;;;;;;12.95;6.28;;;;;;;4.12;55.26;99254.81;5113484;28;20036;-71
2021/03/16 00:08:36;;;;;;;9.93;6.45;;;;;;;4.10;55.52;99254.06;5114395;28;20035;-70
2021/03/16 00:11:01;;;;;;;8.63;5.53;;;;;;;4.02;55.34;99255.28;5114462;28;20469;-70
2021/03/16 00:13:27;;;;;;;11.52;6.65;;;;;;;3.97;55.99;99257.31;5114623;28;20027;-70
2021/03/16 00:15:52;;;;;;;11.80;6.22;;;;;;;3.58;55.96;99207.34;5113941;28;20055;-70
2021/03/16 00:18:19;;;;;;;10.93;6.00;;;;;;;3.77;56.75;99265.34;5114451;28;20032;-70
2021/03/16 00:20:45;;;;;;;11.30;6.10;;;;;;;3.44;56.75;99204.50;5112914;28;20058;-70
2021/03/16 00:23:12;;;;;;;11.27;6.57;;;;;;;3.66;56.58;99242.09;5114240;28;20122;-71
2021/03/16 00:25:39;;;;;;;10.50;6.28;;;;;;;3.62;56.81;99252.88;5113950;28;20027;-71
2021/03/16 00:28:05;;;;;;;15.23;7.30;;;;;;;3.61;57.05;99274.91;5114107;28;20027;-71
2021/03/16 00:30:31;;;;;;;11.10;6.47;;;;;;;3.54;57.43;99281.38;5096324;28;20028;-71
2021/03/16 00:32:56;;;;;;;11.07;6.60;;;;;;;3.31;57.65;99250.81;5114135;28;20034;-72
2021/03/16 00:35:22;;;;;;;13.45;6.85;;;;;;;3.49;57.83;99286.88;5114087;28;20036;-72
2021/03/16 00:37:48;;;;;;;10.57;6.00;;;;;;;3.51;57.31;99290.28;5112514;28;20080;-72
2021/03/16 00:40:14;;;;;;;10.23;6.40;;;;;;;3.55;57.08;99291.00;5113982;28;20031;-72
2021/03/16 00:42:40;;;;;;;9.85;6.38;;;;;;;3.49;56.98;99264.94;5113638;28;20047;-73
2021/03/16 00:45:07;;;;;;;12.93;6.50;;;;;;;3.45;56.40;99236.06;5112771;28;20032;-71
2021/03/16 00:47:33;;;;;;;10.90;6.55;;;;;;;3.60;56.46;99267.91;5113966;28;20038;-71
2021/03/16 00:49:58;;;;;;;11.98;6.38;;;;;;;3.64;56.84;99290.56;5113838;28;20031;-71
2021/03/16 00:52:24;;;;;;;13.05;7.00;;;;;;;3.49;56.50;99259.66;5113388;28;20045;-71
2021/03/16 00:54:49;;;;;;;10.57;6.28;;;;;;;3.55;55.71;99259.34;5112372;28;20037;-71
2021/03/16 00:57:15;;;;;;;11.20;6.30;;;;;;;3.35;55.92;99221.59;5113634;28;20437;-71
2021/03/16 00:59:40;;;;;;;11.65;6.60;;;;;;;3.74;55.69;99281.28;5112427;28;20059;-71
2021/03/16 01:02:07;;;;;;;9.77;6.38;;;;;;;3.51;56.12;99263.06;5112549;28;20465;-71
2021/03/16 01:04:33;;;;;;;10.68;6.57;;;;;;;3.47;56.32;99275.53;5113918;28;20419;-71
2021/03/16 01:06:58;;;;;;;11.32;6.70;;;;;;;3.54;56.43;99281.38;5113355;28;20059;-71
2021/03/16 01:09:23;;;;;;;11.65;6.47;;;;;;;3.47;56.44;99272.03;5113671;28;20382;-71
2021/03/16 01:11:49;;;;;;;12.00;7.32;;;;;;;3.43;57.14;99269.53;5095011;28;20035;-71
2021/03/16 01:14:15;;;;;;;11.00;6.53;;;;;;;2.93;57.19;99197.25;5112255;28;20470;-71
2021/03/16 01:16:40;;;;;;;10.10;6.35;;;;;;;3.19;57.43;99241.72;5113627;28;20047;-71
2021/03/16 01:19:06;;;;;;;11.07;6.97;;;;;;;2.83;57.71;99202.09;5113430;28;20497;-72
2021/03/16 01:21:31;;;;;;;11.68;6.85;;;;;;;3.39;57.13;99267.13;5113421;28;20035;-71
2021/03/16 01:23:56;;;;;;;11.38;6.30;;;;;;;3.42;57.45;99275.75;5113156;28;20588;-71
2021/03/16 01:26:22;;;;;;;13.95;7.13;;;;;;;3.39;57.36;99280.31;5113084;28;20040;-71
2021/03/16 01:28:47;;;;;;;12.13;7.03;;;;;;;3.24;57.95;99271.31;5112437;28;20028;-69
2021/03/16 01:31:13;;;;;;;11.20;6.93;;;;;;;2.56;58.81;99199.75;5113745;28;20440;-69
2021/03/16 01:33:38;;;;;;;12.60;6.75;;;;;;;2.85;59.89;99280.09;5113309;28;20039;-76
2021/03/16 01:36:04;;;;;;;10.98;6.63;;;;;;;3.01;59.10;99275.00;5113410;28;20484;-69
2021/03/16 01:38:30;;;;;;;14.82;7.32;;;;;;;2.92;59.95;99264.03;5113460;28;20036;-69
2021/03/16 01:40:55;;;;;;;12.68;6.18;;;;;;;2.98;59.42;99269.84;5113063;28;20385;-69
2021/03/16 01:43:25;;;;;;;12.15;7.15;;;;;;;2.96;59.46;99248.00;5113548;28;20039;-72
2021/03/16 01:45:51;;;;;;;10.68;6.78;;;;;;;2.95;59.56;99242.81;5113159;28;20043;-73
2021/03/16 01:48:35;;;;;;;14.63;7.18;;;;;;;3.07;59.22;99242.25;5112103;28;20031;-72
2021/03/16 01:51:04;;;;;;;11.48;6.65;;;;;;;3.25;59.35;99273.03;5113014;28;20382;-73
2021/03/16 01:53:29;;;;;;;12.00;7.18;;;;;;;3.24;59.87;99260.78;5112867;28;20048;-72
2021/03/16 01:55:56;;;;;;;13.07;6.80;;;;;;;3.05;59.98;99241.47;5113192;28;20043;-72
2021/03/16 01:58:22;;;;;;;13.35;7.13;;;;;;;3.01;60.14;99234.66;5113111;28;20118;-72
2021/03/16 02:00:48;;;;;;;13.45;7.85;;;;;;;3.10;60.34;99271.13;5111654;28;20130;-72
2021/03/16 02:03:13;;;;;;;13.00;7.35;;;;;;;3.12;60.11;99266.63;5113196;28;20043;-72
2021/03/16 02:05:40;;;;;;;16.17;7.63;;;;;;;2.94;60.32;99252.50;5115231;28;20541;-71
2021/03/16 02:08:18;;;;;;;13.93;7.78;;;;;;;3.02;60.58;99275.88;5117096;28;20040;-71
2021/03/16 02:11:12;;;;;;;12.98;7.38;;;;;;;2.96;60.90;99281.41;5116891;27;20042;-71
2021/03/16 02:13:46;;;;;;;13.52;8.02;;;;;;;2.97;60.88;99259.41;5117030;28;20055;-71
2021/03/16 02:16:17;;;;;;;13.20;7.47;;;;;;;2.52;61.06;99205.25;5116682;28;20075;-71
2021/03/16 02:18:51;;;;;;;13.65;7.32;;;;;;;2.78;60.81;99240.94;5116432;28;20143;-72
2021/03/16 02:21:21;;;;;;;11.63;7.35;;;;;;;2.88;61.32;99276.47;5117025;27;20019;-70
2021/03/16 02:24:04;;;;;;;13.02;7.32;;;;;;;2.83;61.63;99279.31;5116374;28;20023;-71
2021/03/16 02:26:35;;;;;;;14.77;8.23;;;;;;;2.43;61.89;99213.53;5116432;28;20378;-70
2021/03/16 02:29:23;;;;;;;14.90;7.90;;;;;;;2.80;61.83;99278.59;5116538;28;20027;-71
2021/03/16 02:31:55;;;;;;;13.98;7.55;;;;;;;2.85;61.75;99284.50;5116247;27;20393;-71
2021/03/16 02:34:22;;;;;;;14.25;8.05;;;;;;;2.66;61.92;99252.84;5116790;28;20027;-71
2021/03/16 02:36:48;;;;;;;15.70;8.82;;;;;;;2.54;62.21;99251.63;5116544;28;20397;-72
2021/03/16 02:39:16;;;;;;;15.15;8.52;;;;;;;2.59;62.98;99273.31;5116531;28;20042;-71
2021/03/16 02:41:46;;;;;;;14.35;7.93;;;;;;;2.43;62.93;99258.28;5116402;28;20028;-70
2021/03/16 02:44:13;;;;;;;15.38;8.18;;;;;;;2.47;62.87;99249.31;5116299;28;20032;-70
2021/03/16 02:46:42;;;;;;;18.15;8.98;;;;;;;2.61;62.56;99283.81;5116310;28;20035;-71
2021/03/16 02:49:09;;;;;;;15.13;8.82;;;;;;;2.45;62.79;99259.06;5116051;28;20381;-72
2021/03/16 02:51:37;;;;;;;15.57;8.70;;;;;;;2.62;62.64;99282.03;5114907;28;20035;-71
2021/03/16 02:54:03;;;;;;;14.95;8.48;;;;;;;2.57;63.04;99284.84;5114806;28;20088;-72
2021/03/16 02:56:30;;;;;;;15.30;8.23;;;;;;;2.11;62.96;99207.84;5115079;28;20043;-72
2021/03/16 02:58:57;;;;;;;13.90;8.25;;;;;;;2.43;62.99;99274.91;5115731;28;20093;-72
2021/03/16 03:01:24;;;;;;;16.42;8.50;;;;;;;2.26;63.51;99249.31;5116038;28;20443;-72
2021/03/16 03:03:51;;;;;;;15.00;8.27;;;;;;;2.47;63.66;99289.66;5115698;28;20024;-71
2021/03/16 03:06:17;;;;;;;14.98;8.65;;;;;;;2.51;63.42;99290.38;5115708;28;20032;-71
2021/03/16 03:08:46;;;;;;;15.68;8.82;;;;;;;2.49;63.86;99302.75;5115921;28;20047;-71
2021/03/16 03:11:11;;;;;;;17.13;8.43;;;;;;;2.49;63.97;99292.22;5114491;28;20031;-70
2021/03/16 03:13:38;;;;;;;15.63;8.88;;;;;;;2.47;63.85;99299.31;5115754;28;20039;-70
2021/03/16 03:16:04;;;;;;;16.98;8.52;;;;;;;2.26;63.94;99265.09;5114553;28;20079;-71
2021/03/16 03:18:31;;;;;;;18.52;9.05;;;;;;;2.32;63.97;99265.75;5114820;28;20435;-71
2021/03/16 03:21:09;;;;;;;14.95;8.65;;;;;;;1.95;64.28;99222.59;5115277;28;20043;-72
2021/03/16 03:23:40;;;;;;;17.77;9.02;;;;;;;2.42;63.97;99296.06;5115753;28;20093;-71
2021/03/16 03:26:22;;;;;;;14.07;8.40;;;;;;;2.20;64.31;99275.00;5115488;27;20031;-71
2021/03/16 03:28:48;;;;;;;18.05;8.82;;;;;;;2.41;64.31;99304.84;5115312;28;20035;-71
2021/03/16 03:31:16;;;;;;;15.07;8.63;;;;;;;2.38;64.45;99302.34;5115354;28;20081;-72
2021/03/16 03:33:43;;;;;;;15.80;8.52;;;;;;;2.11;64.81;99286.78;5113928;28;20032;-71
2021/03/16 03:36:09;;;;;;;17.10;8.73;;;;;;;2.29;64.75;99320.22;5114980;27;20035;-71
2021/03/16 03:38:36;;;;;;;14.57;8.55;;;;;;;2.28;64.69;99320.28;5115460;28;20058;-72
2021/03/16 03:41:03;;;;;;;16.65;8.85;;;;;;;2.12;64.78;99283.22;5113912;28;20032;-74
2021/03/16 03:43:32;;;;;;;15.60;8.25;;;;;;;2.07;65.22;99279.94;5113708;28;20040;-75
2021/03/16 03:45:58;;;;;;;16.48;8.90;;;;;;;2.22;65.12;99310.88;5114701;28;20046;-68
2021/03/16 03:48:27;;;;;;;15.65;9.00;;;;;;;2.11;65.46;99307.81;5115078;28;20027;-73
2021/03/16 03:50:54;;;;;;;17.92;9.07;;;;;;;2.19;65.71;99312.78;5114758;28;20036;-73
2021/03/16 03:53:20;;;;;;;15.55;8.43;;;;;;;2.13;65.65;99321.78;5114935;28;20032;-73
2021/03/16 03:55:47;;;;;;;17.15;9.32;;;;;;;1.72;65.82;99258.53;5115030;28;20382;-70
2021/03/16 03:58:14;;;;;;;14.30;9.07;;;;;;;1.83;66.52;99304.56;5114776;28;20027;-69
2021/03/16 04:00:40;;;;;;;17.05;9.25;;;;;;;1.95;66.43;99330.41;5114687;28;20138;-70
2021/03/16 04:03:06;;;;;;;17.08;9.63;;;;;;;1.92;66.42;99333.16;5113169;28;20513;-71
2021/03/16 04:05:32;;;;;;;18.10;8.57;;;;;;;1.88;66.35;99331.56;5114502;28;20032;-71
2021/03/16 04:07:58;;;;;;;16.00;9.25;;;;;;;1.91;66.72;99337.56;5114570;28;20495;-74
2021/03/16 04:10:24;;;;;;;16.77;8.60;;;;;;;1.89;66.91;99343.78;5114673;28;20065;-71
2021/03/16 04:12:52;;;;;;;15.35;9.38;;;;;;;1.88;66.67;99347.34;5114258;28;20078;-74
2021/03/16 04:15:18;;;;;;;18.63;9.85;;;;;;;1.79;66.69;99326.66;5114381;28;20404;-73
2021/03/16 04:17:45;;;;;;;16.05;9.57;;;;;;;1.48;67.31;99295.47;5114686;28;20057;-73
2021/03/16 04:20:14;;;;;;;16.48;9.40;;;;;;;1.81;67.08;99351.13;5113152;28;20036;-72
2021/03/16 04:22:41;;;;;;;16.27;9.38;;;;;;;1.63;67.50;99318.50;5114528;28;20067;-71
2021/03/16 04:25:08;;;;;;;19.65;9.63;;;;;;;1.65;67.11;99329.84;5114227;28;20088;-71
2021/03/16 04:27:34;;;;;;;16.05;8.43;;;;;;;1.83;67.07;99349.28;5113341;28;20089;-71
2021/03/16 04:29:59;;;;;;;17.73;9.60;;;;;;;1.82;67.50;99358.09;5112628;28;20478;-71
2021/03/16 04:32:25;;;;;;;17.42;10.38;;;;;;;1.28;68.10;99283.94;5114297;28;20047;-71
2021/03/16 04:34:51;;;;;;;20.90;9.48;;;;;;;1.80;67.28;99349.41;5114067;28;20027;-70
2021/03/16 04:37:16;;;;;;;17.13;9.50;;;;;;;1.75;67.57;99359.25;5114211;28;20036;-70
2021/03/16 04:39:42;;;;;;;17.50;9.55;;;;;;;1.27;67.44;99286.63;5113980;28;20460;-70
2021/03/16 04:42:08;;;;;;;18.60;9.65;;;;;;;1.70;68.12;99355.03;5095405;28;20056;-71
2021/03/16 04:44:33;;;;;;;15.40;9.32;;;;;;;1.72;68.06;99368.97;5113965;28;20027;-69
2021/03/16 04:46:59;;;;;;;17.60;9.95;;;;;;;1.47;68.38;99330.53;5113711;28;20070;-70
2021/03/16 04:49:24;;;;;;;17.02;9.60;;;;;;;1.24;68.49;99305.97;5113971;28;20586;-69
2021/03/16 04:51:49;;;;;;;16.42;9.63;;;;;;;1.55;69.06;99363.50;5113803;28;20030;-70
2021/03/16 04:54:15;;;;;;;16.92;9.75;;;;;;;1.42;69.31;99343.84;5113457;28;20039;-70
2021/03/16 04:56:41;;;;;;;17.85;9.98;;;;;;;1.57;69.00;99358.19;5113665;28;20032;-71
2021/03/16 04:59:06;;;;;;;19.48;10.75;;;;;;;1.57;69.01;99353.78;5113202;28;20035;-71
2021/03/16 05:01:32;;;;;;;18.55;9.82;;;;;;;1.32;69.51;99334.59;5112392;28;20051;-71
2021/03/16 05:03:57;;;;;;;17.83;10.20;;;;;;;1.56;69.43;99362.59;5112282;28;20042;-71
2021/03/16 05:06:23;;;;;;;18.52;10.25;;;;;;;1.53;69.55;99372.34;5113520;28;20042;-71
2021/03/16 05:08:49;;;;;;;20.10;10.27;;;;;;;1.58;69.51;99370.41;5113606;28;20030;-70
2021/03/16 05:11:15;;;;;;;20.50;10.65;;;;;;;1.46;69.28;99345.44;5113237;28;20052;-71
2021/03/16 05:13:40;;;;;;;19.42;10.35;;;;;;;1.36;69.45;99317.81;5113244;28;20460;-73
2021/03/16 05:16:06;;;;;;;20.00;10.10;;;;;;;1.51;69.01;99340.88;5111988;28;20051;-73
2021/03/16 05:18:32;;;;;;;18.65;9.93;;;;;;;1.69;69.12;99358.56;5113717;28;20393;-73
2021/03/16 05:20:58;;;;;;;19.45;10.13;;;;;;;1.71;69.21;99372.50;5112088;28;20031;-74
2021/03/16 05:23:23;;;;;;;18.52;10.50;;;;;;;1.80;68.56;99373.06;5113350;28;20027;-73
2021/03/16 05:25:49;;;;;;;22.23;10.52;;;;;;;1.66;69.41;99377.09;5113597;28;20436;-73
2021/03/16 05:28:14;;;;;;;24.13;10.27;;;;;;;1.74;69.33;99382.06;5112917;28;20039;-72
2021/03/16 05:30:40;;;;;;;24.02;10.52;;;;;;;1.31;69.38;99306.59;5113397;28;20061;-74
2021/03/16 05:33:06;;;;;;;23.25;11.13;;;;;;;1.69;69.29;99362.97;5113291;28;20032;-74
2021/03/16 05:35:31;;;;;;;19.90;10.50;;;;;;;1.89;68.88;99383.25;5113761;28;20035;-74
2021/03/16 05:37:57;;;;;;;18.75;10.80;;;;;;;1.84;69.29;99387.84;5112793;28;20031;-75
2021/03/16 05:40:25;;;;;;;22.15;11.05;;;;;;;1.62;69.16;99351.81;5117853;28;20028;-74
2021/03/16 05:42:51;;;;;;;23.17;11.98;;;;;;;1.97;68.73;99389.06;5117537;28;20065;-71
2021/03/16 05:45:17;;;;;;;24.92;11.60;;;;;;;1.83;68.92;99365.91;5117363;28;20035;-69
2021/03/16 05:47:46;;;;;;;19.30;11.25;;;;;;;2.07;68.88;99402.72;5117308;28;20032;-71
2021/03/16 05:50:12;;;;;;;22.02;11.50;;;;;;;1.90;68.87;99369.16;5117012;28;20054;-72
2021/03/16 05:52:40;;;;;;;21.52;10.95;;;;;;;1.86;68.75;99338.66;5117288;28;20073;-72
2021/03/16 05:55:07;;;;;;;21.20;10.80;;;;;;;2.04;68.38;99358.97;5115817;28;20031;-72
2021/03/16 05:57:32;;;;;;;22.77;11.32;;;;;;;2.30;68.42;99398.25;5099007;28;20482;-72
2021/03/16 05:59:58;;;;;;;20.95;10.00;;;;;;;2.47;68.09;99416.00;5116194;28;20039;-76
2021/03/16 06:02:24;;;;;;;16.00;9.20;;;;;;;2.54;67.82;99420.09;5122197;28;20036;-73
2021/03/16 06:04:50;;;;;;;17.88;10.50;;;;;;;2.56;68.03;99415.63;5118658;28;20032;-74
2021/03/16 06:07:16;;;;;;;21.48;10.73;;;;;;;2.60;68.01;99413.72;5119285;27;20039;-74
2021/03/16 06:09:42;;;;;;;21.25;11.38;;;;;;;2.65;67.79;99421.44;5119857;28;20050;-73
2021/03/16 06:12:09;;;;;;;15.40;9.60;;;;;;;2.69;67.89;99431.78;5120143;28;20039;-70
2021/03/16 06:14:36;;;;;;;21.45;10.50;;;;;;;2.71;68.32;99437.84;5123943;28;20050;-78
2021/03/16 06:17:03;;;;;;;22.98;11.20;;;;;;;2.74;68.09;99424.56;5123553;28;20071;-76
2021/03/16 06:19:30;;;;;;;19.02;10.93;;;;;;;2.81;68.16;99431.28;5120310;28;20083;-76
2021/03/16 06:22:07;;;;;;;19.33;10.63;;;;;;;2.76;68.02;99412.16;5117821;28;20560;-77
2021/03/16 06:24:43;;;;;;;18.63;11.07;;;;;;;2.87;67.84;99425.75;5123359;28;20055;-82
2021/03/16 06:27:19;;;;;;;18.90;11.18;;;;;;;2.81;67.94;99401.47;5123360;28;20080;-75
2021/03/16 06:29:46;;;;;;;18.70;10.43;;;;;;;3.16;67.52;99442.09;5122555;28;20172;-75
2021/03/16 06:32:14;;;;;;;19.10;11.07;;;;;;;3.25;67.27;99431.16;5125773;28;20059;-76
2021/03/16 06:34:40;;;;;;;18.13;11.00;;;;;;;3.21;67.05;99413.78;5119247;28;20032;-77
2021/03/16 06:37:06;;;;;;;21.70;11.63;;;;;;;3.34;67.14;99428.13;5101120;28;20497;-75
2021/03/16 06:39:31;;;;;;;19.98;11.05;;;;;;;3.39;67.25;99434.06;5117294;28;20088;-82
2021/03/16 06:41:57;;;;;;;21.80;11.52;;;;;;;3.48;67.44;99442.50;5116635;28;20023;-75
2021/03/16 06:44:23;;;;;;;21.13;10.93;;;;;;;3.57;67.10;99442.06;5115590;28;20067;-73
2021/03/16 06:47:00;;;;;;;17.67;10.65;;;;;;;3.42;67.60;99433.06;5097237;28;20424;-78
2021/03/16 06:49:26;;;;;;;21.45;10.93;;;;;;;3.68;67.11;99442.47;5097365;28;20105;-77
2021/03/16 06:51:54;;;;;;;18.30;10.73;;;;;;;3.75;66.64;99446.53;5116972;28;20422;-77
2021/03/16 06:54:29;;;;;;;18.50;10.57;;;;;;;3.32;67.27;99393.09;5097651;28;20427;-81
2021/03/16 06:56:56;;;;;;;20.35;11.05;;;;;;;3.83;67.04;99447.03;5101279;28;20493;-81
2021/03/16 06:59:24;;;;;;;20.92;11.23;;;;;;;3.75;66.76;99435.97;5117114;28;20036;-79
2021/03/16 07:01:49;;;;;;;19.25;10.98;;;;;;;4.07;66.21;99458.28;5115978;28;20065;-78
2021/03/16 07:04:17;;;;;;;19.23;10.90;;;;;;;3.90;66.05;99443.22;5115868;28;20462;-79
2021/03/16 07:06:43;;;;;;;17.50;10.85;;;;;;;3.94;66.21;99442.13;5116137;28;20062;-79
2021/03/16 07:09:14;;;;;;;19.45;10.40;;;;;;;4.11;65.80;99425.53;5097263;28;20031;-73
2021/03/16 07:11:45;;;;;;;17.40;10.93;;;;;;;4.19;65.79;99449.78;5115683;28;20031;-75
2021/03/16 07:14:12;;;;;;;16.98;10.43;;;;;;;4.39;65.75;99467.31;5115690;28;20059;-77
2021/03/16 07:16:39;;;;;;;18.77;10.93;;;;;;;4.23;65.81;99432.00;5115253;28;20055;-77
2021/03/16 07:19:06;;;;;;;23.20;11.05;;;;;;;4.48;65.11;99469.53;5115425;28;20390;-74
2021/03/16 07:21:40;;;;;;;19.60;11.18;;;;;;;4.46;65.08;99449.41;5118480;28;20028;-74
2021/03/16 07:24:08;;;;;;;18.25;11.40;;;;;;;4.70;65.12;99468.50;5115103;28;20026;-74
2021/03/16 07:26:35;;;;;;;17.20;10.60;;;;;;;4.70;64.83;99468.50;5115241;28;20035;-76
2021/03/16 07:29:05;;;;;;;17.15;10.40;;;;;;;4.88;64.53;99483.44;5096497;28;20470;-75
2021/03/16 07:31:33;;;;;;;16.65;9.85;;;;;;;4.90;64.30;99465.72;5115243;28;20470;-75
2021/03/16 07:34:06;;;;;;;18.00;9.77;;;;;;;4.88;64.53;99472.88;5096733;28;20026;-78
2021/03/16 07:36:34;;;;;;;17.58;10.35;;;;;;;4.95;64.06;99479.56;5115192;28;20057;-79
2021/03/16 07:39:02;;;;;;;18.42;11.00;;;;;;;5.05;63.90;99485.25;5115084;28;20059;-77
2021/03/16 07:41:28;;;;;;;15.32;9.40;;;;;;;4.84;64.17;99451.03;5097077;28;20456;-74
2021/03/16 07:44:10;;;;;;;19.50;10.90;;;;;;;5.11;63.83;99490.22;5114962;28;20478;-78
2021/03/16 07:47:01;;;;;;;17.55;10.50;;;;;;;5.20;63.25;99479.19;5096455;28;20035;-75
2021/03/16 07:49:39;;;;;;;23.25;11.35;;;;;;;5.13;63.43;99468.09;5103295;28;20119;-74
2021/03/16 07:52:19;;;;;;;18.90;10.82;;;;;;;5.02;63.37;99438.72;5096794;28;20035;-75
2021/03/16 07:54:50;;;;;;;26.20;10.43;;;;;;;5.26;63.76;99484.19;5114762;28;20032;-76
2021/03/16 07:57:30;;;;;;;20.42;11.10;;;;;;;5.29;62.94;99489.31;5115803;28;20031;-76
2021/03/16 08:00:16;;;;;;;19.48;11.13;;;;;;;5.15;62.99;99474.16;5115101;28;20423;-78
2021/03/16 08:02:44;;;;;;;21.10;12.00;;;;;;;5.37;63.26;99495.06;5096336;28;20034;-77
2021/03/16 08:05:17;;;;;;;23.08;11.13;;;;;;;5.47;63.23;99508.69;5114119;28;20059;-77
2021/03/16 08:07:42;;;;;;;16.95;9.52;;;;;;;5.31;63.78;99476.88;5114414;28;20041;-77
2021/03/16 08:10:10;;;;;;;19.80;11.52;;;;;;;5.10;63.07;99438.28;5114334;28;20112;-76
2021/03/16 08:12:35;;;;;;;20.02;10.98;;;;;;;5.41;62.88;99494.00;5114219;28;20039;-76
2021/03/16 08:15:13;;;;;;;19.63;11.63;;;;;;;5.30;62.90;99474.28;5113467;28;20461;-78
2021/03/16 08:17:38;;;;;;;20.38;12.23;;;;;;;5.53;62.80;99503.09;5114766;28;20047;-79
2021/03/16 08:20:05;;;;;;;21.10;11.70;;;;;;;5.67;62.64;99516.44;5114408;28;20367;-73
2021/03/16 08:22:31;;;;;;;19.83;11.75;;;;;;;5.35;62.16;99420.25;5096256;28;20435;-76
2021/03/16 08:25:06;;;;;;;19.30;11.20;;;;;;;5.93;61.62;99516.91;5113523;28;20032;-75
2021/03/16 08:27:34;;;;;;;18.95;10.82;;;;;;;5.92;61.49;99515.22;5113779;28;20469;-75
2021/03/16 08:30:02;;;;;;;20.65;11.30;;;;;;;6.07;61.01;99503.78;5114240;28;20043;-72
2021/03/16 08:32:28;;;;;;;18.83;11.23;;;;;;;6.18;60.47;99508.53;5113802;28;20194;-74
2021/03/16 08:34:56;;;;;;;17.40;11.52;;;;;;;6.20;60.22;99510.16;5095449;28;20039;-72
2021/03/16 08:37:33;;;;;;;18.63;11.38;;;;;;;6.38;60.73;99508.31;5113911;28;20363;-81
2021/03/16 08:39:59;;;;;;;18.58;10.93;;;;;;;6.44;60.08;99507.09;5114071;28;20114;-78
2021/03/16 08:42:26;;;;;;;19.58;11.45;;;;;;;6.59;59.99;99507.13;5113880;28;20035;-75
2021/03/16 08:44:54;;;;;;;19.48;10.40;;;;;;;6.62;60.03;99511.38;5113628;28;20386;-73
2021/03/16 08:47:21;;;;;;;18.58;11.48;;;;;;;6.63;59.70;99517.53;5113779;28;20035;-74
2021/03/16 08:49:49;;;;;;;20.38;11.82;;;;;;;6.88;59.41;99516.09;5113680;28;20057;-71
2021/03/16 08:52:22;;;;;;;20.55;12.07;;;;;;;6.98;58.98;99503.16;5113812;28;20034;-75
2021/03/16 08:54:53;;;;;;;17.90;11.10;;;;;;;7.05;57.36;99499.22;5113487;28;20035;-73
2021/03/16 08:57:26;;;;;;;16.30;9.05;;;;;;;7.03;54.16;99465.75;5113561;28;20043;-75
2021/03/16 08:59:54;;;;;;;14.43;8.43;;;;;;;7.27;52.22;99488.22;5113786;28;20032;-75
2021/03/16 09:02:20;;;;;;;15.82;8.27;;;;;;;7.51;51.38;99519.53;5113322;28;20039;-72
2021/03/16 09:04:48;;;;;;;16.35;9.55;;;;;;;7.54;50.25;99516.72;5113135;28;20024;-73
2021/03/16 09:07:24;;;;;;;13.77;8.02;;;;;;;7.76;48.19;99517.13;5113403;28;20043;-76
2021/03/16 09:09:50;;;;;;;11.15;7.00;;;;;;;7.71;47.85;99492.66;5095210;28;20047;-74
2021/03/16 09:12:29;;;;;;;14.80;8.50;;;;;;;7.74;47.14;99505.75;5094913;28;20027;-75
2021/03/16 09:15:05;;;;;;;13.65;8.02;;;;;;;7.84;46.87;99506.91;5095358;28;20199;-77
2021/03/16 09:17:35;;;;;;;12.15;7.78;;;;;;;8.08;47.42;99506.34;5114365;28;20435;-77
2021/03/16 09:20:22;;;;;;;13.07;8.38;;;;;;;7.85;47.85;99499.78;5113873;28;20061;-77
2021/03/16 09:23:12;;;;;;;12.13;7.78;;;;;;;7.88;48.47;99489.84;5114009;28;20036;-70
2021/03/16 09:25:46;;;;;;;12.90;8.18;;;;;;;8.13;48.23;99498.97;5112273;28;20440;-71
2021/03/16 09:28:16;;;;;;;17.40;8.00;;;;;;;8.19;45.17;99519.81;5095222;28;20024;-73
2021/03/16 09:30:54;;;;;;;11.85;6.82;;;;;;;8.20;44.94;99510.88;5094875;28;20036;-78
2021/03/16 09:33:23;;;;;;;13.07;7.80;;;;;;;8.10;47.37;99523.88;5095118;28;20482;-76
2021/03/16 09:36:00;;;;;;;12.82;8.23;;;;;;;7.98;48.18;99520.19;5094883;28;20043;-73
2021/03/16 09:38:26;;;;;;;16.52;8.38;;;;;;;7.88;48.68;99460.63;5094944;28;20092;-75
2021/03/16 09:40:52;;;;;;;14.00;8.05;;;;;;;7.99;46.92;99452.84;5113316;28;20115;-73
2021/03/16 09:43:22;;;;;;;13.90;7.88;;;;;;;8.37;47.93;99515.19;5113233;28;20119;-74
2021/03/16 09:45:59;;;;;;;13.90;7.97;;;;;;;8.35;47.25;99523.25;5112784;28;20119;-75
2021/03/16 09:48:26;;;;;;;10.57;6.63;;;;;;;8.27;46.20;99522.84;5112912;28;20114;-75
2021/03/16 09:50:53;;;;;;;11.38;6.90;;;;;;;8.29;46.93;99519.16;5112951;28;20024;-78
2021/03/16 09:53:19;;;;;;;15.02;8.30;;;;;;;8.39;47.49;99502.66;5113437;28;20439;-77
2021/03/16 09:55:48;;;;;;;13.30;7.43;;;;;;;8.47;45.90;99532.25;5112579;28;20047;-75
2021/03/16 09:58:21;;;;;;;12.57;7.03;;;;;;;8.71;45.84;99506.78;5112841;28;20389;-77
2021/03/16 10:00:49;;;;;;;14.40;7.28;;;;;;;8.54;46.06;99462.69;5095163;28;20126;-80
2021/03/16 10:03:16;;;;;;;12.40;7.13;;;;;;;8.87;45.27;99511.97;5112927;28;20397;-76
2021/03/16 10:05:42;;;;;;;13.07;7.57;;;;;;;8.58;45.88;99465.97;5112656;28;20536;-78
2021/03/16 10:08:07;;;;;;;13.48;7.93;;;;;;;8.66;46.29;99476.13;5112954;28;20119;-76
2021/03/16 10:10:38;;;;;;;12.63;7.45;;;;;;;9.05;44.83;99516.09;5112952;28;20439;-78
2021/03/16 10:13:06;;;;;;;12.40;7.10;;;;;;;8.99;45.34;99529.81;5095536;28;20067;-74
2021/03/16 10:15:31;;;;;;;11.98;6.93;;;;;;;8.88;44.63;99524.34;5090671;28;20056;-72
2021/03/16 10:17:59;;;;;;;11.45;7.38;;;;;;;8.86;43.74;99520.91;5092769;28;20035;-79
2021/03/16 10:20:31;;;;;;;12.77;6.97;;;;;;;8.92;43.19;99509.88;5094019;28;20079;-78
2021/03/16 10:23:00;;;;;;;9.55;6.30;;;;;;;8.89;43.13;99504.75;5060884;28;20450;-77
2021/03/16 10:25:27;;;;;;;12.45;7.20;;;;;;;8.67;43.25;99491.13;5088759;28;20031;-73
2021/03/16 10:27:55;;;;;;;9.65;6.07;;;;;;;8.99;43.63;99502.34;5094441;28;20024;-79
2021/03/16 10:30:31;;;;;;;10.07;5.00;;;;;;;8.95;42.06;99528.28;5095991;28;20028;-75
2021/03/16 10:32:57;;;;;;;12.27;6.53;;;;;;;9.07;42.56;99510.66;5097501;28;20039;-81
2021/03/16 10:35:22;;;;;;;10.23;6.50;;;;;;;9.14;42.29;99499.50;5097365;28;20036;-79
2021/03/16 10:37:48;;;;;;;10.50;6.35;;;;;;;9.15;43.10;99490.56;5088830;28;20043;-78
2021/03/16 10:40:14;;;;;;;9.40;5.88;;;;;;;9.05;43.40;99513.41;5076027;28;20505;-79
2021/03/16 10:42:39;;;;;;;11.43;6.57;;;;;;;9.07;44.16;99489.38;5058170;28;20090;-78
2021/03/16 10:45:06;;;;;;;11.63;7.05;;;;;;;9.34;43.95;99494.69;5074882;28;20131;-77
2021/03/16 10:47:31;;;;;;;9.27;5.43;;;;;;;9.45;43.43;99495.66;5075838;28;20029;-79
2021/03/16 10:49:57;;;;;;;9.52;5.93;;;;;;;9.32;42.49;99491.28;5075888;28;20043;-78
2021/03/16 10:52:22;;;;;;;14.65;7.32;;;;;;;9.43;43.01;99500.22;5075963;28;20044;-72
2021/03/16 10:54:48;;;;;;;11.15;6.40;;;;;;;9.52;42.46;99493.44;5084394;28;20044;-73
2021/03/16 10:57:14;;;;;;;10.35;6.75;;;;;;;9.81;41.24;99512.75;5097743;28;20501;-74
2021/03/16 10:59:39;;;;;;;10.38;6.75;;;;;;;9.38;40.25;99446.47;5097115;28;20024;-72
2021/03/16 11:02:05;;;;;;;11.32;5.90;;;;;;;9.62;40.29;99499.84;5100408;28;20040;-74
2021/03/16 11:04:30;;;;;;;12.02;7.00;;;;;;;9.33;41.77;99466.38;5094870;28;20368;-75
2021/03/16 11:06:56;;;;;;;13.90;7.63;;;;;;;9.47;42.55;99506.22;5095318;28;20085;-73
2021/03/16 11:09:22;;;;;;;14.00;7.65;;;;;;;9.71;42.75;99509.88;5095644;28;20036;-76
2021/03/16 11:11:47;;;;;;;14.30;8.25;;;;;;;9.66;41.92;99450.78;5096738;28;20031;-79
2021/03/16 11:14:14;;;;;;;12.05;7.45;;;;;;;10.06;41.54;99489.75;5095695;28;20032;-75
2021/03/16 11:16:40;;;;;;;13.30;7.80;;;;;;;10.09;41.53;99493.06;5109339;28;20078;-78
2021/03/16 11:19:05;;;;;;;12.40;7.30;;;;;;;9.96;40.83;99441.59;5098670;28;20035;-76
2021/03/16 11:21:31;;;;;;;13.07;7.22;;;;;;;10.28;40.49;99484.63;5115080;28;20431;-76
2021/03/16 11:23:56;;;;;;;13.93;8.07;;;;;;;10.05;40.75;99478.25;5115559;28;20114;-72
2021/03/16 11:26:22;;;;;;;13.48;7.93;;;;;;;10.07;41.38;99489.66;5097027;28;20035;-75
2021/03/16 11:28:47;;;;;;;12.32;6.60;;;;;;;10.14;41.20;99474.94;5116084;28;20028;-77
2021/03/16 11:31:13;;;;;;;12.45;7.57;;;;;;;10.35;40.66;99477.91;5081164;28;20039;-75
2021/03/16 11:33:39;;;;;;;12.98;7.60;;;;;;;10.27;40.76;99474.94;5098558;28;20032;-79
2021/03/16 11:36:05;;;;;;;15.55;7.40;;;;;;;10.01;40.52;99490.06;5115430;28;20042;-77